Главная страница
METAR-TAF:

METAR-TAF

Аэропорты :

Вардё, Норвегия

широта: 70-21N, долгота: 031-03E, высота над уровнем моря: 12 м

Текущие метеонаблюдения

Эта сводка был подготовлена 2 часа и 48 минут назад, в 20:50 UTC
Ветер 7 Узел от южный-юго-западный
Температура 0°C
Влажность 80%
Давление 1032 hPa
Видимость 10 км и более
Рассеянная облачность на высоте 3300 фута

METAR: ENSS 182050Z 20007KT 9999 BKN033 M00/M03 Q1032 RMK WIND 500FT 18009KT

Время: 00:38 (23:38 UTC)


TAF: отсутствует

Метеонаблюдения и прогнозы для более 4000 аэропортов (сводки METAR и TAF).

Имеющиеся станции представлены на карте желтыми и красными точками.

Чтобы увидеть название станции, наведите на нее мышь.

Затем щелкните, чтобы увидеть метеонаблюдения и метеопрогнозы.

Управление картой: чтобы увеличить масштаб, щелкните зеленые кнопки с черным крестиком; чтобы уменьшить масштаб, щелкните зеленую кнопку с тире; для просмотра соседних карт щелкайте зеленые стрелки.


METAR-TAF: